Quality, Kentucky
Current Conditions -  °F | °C
As of 1:53 PM on Wednesday 26 Nov 2014 (Local Time) from KBWG Reporting Station
Clear Clear  
Wind Chill: 45°   Ceiling: Unl
Heat Index: 45°   Visibility: 10mi
Dew Point: 18°   Wind: 3mph
Humidity: 34%   Direction: 180°S
Pressure: 30.05"   Gusts: NA
Location:  37.0248°N, 86.945°W
Report Text: KBWG 261953Z AUTO 18003KT 10SM CLR 07/M08 A3005 RMK AO2 SLP177 T00721078
Loading
Personal Weather Stations






























Interactive Weather Map New forecast layout! Learn more

10-Day Weather Forecast

Advertisements
Track Severe Weather on mobile